Sao Joao da Serra, Brazil
Current Conditions -  °F | °C
As of 11:00 AM on Monday 22 Dec 2014 (Local Time) from SBTE Reporting Station
Broken Clouds Broken Clouds  
Wind Chill: 91°   Ceiling: 2000
Heat Index: 93°   Visibility: 6mi
Dew Point: 64°   Wind: 7mph
Humidity: 41%   Direction: 140°SE
Pressure: 29.88"   Gusts: NA
Location:  5.51°S, 41.9°W
Report Text: SBTE 221400Z 14006KT 9999 BKN020 33/18 Q1012
Loading
Personal Weather Stations






























Interactive Weather Map New forecast layout! Learn more

10-Day Weather Forecast

Advertisements
Track Severe Weather on mobile